Rickmers Dalian — V7FS3 — position and weather

sailwx.info

Track history (hours):
 
Tides and Currents Weather Stations Pressure Air Temp Water Temp Dewpoint Dewpoint Depression Visibility Wind Speed Wind Dir Waves Ship Positions

Rickmers Dalian

Last reported at 2015-Mar-01 10:00 UTC. Time now 2015-Mar-01 11:01 UTC.
Position N 27°30' W 115°48'.

Length 193 m; beam 27.8 m; draft 11.2 m.

Type: Ship. MMSI: 538090156.

Wind from 260 at 10 knots

Waves 1.0 meters (3 feet), 8 second period

Barometer 1014.1 mb
Air temperature 17.1 ° C
Visibility: greater than 5.4 NM
Dewpoint 15.4 ° C
Water temperature 19.2 ° C

Date/timePositionNaut miles runAvg speedWind from/ knotsBaromVisibWave heightAir tempDewpointWater temp
2015-Mar-01 10:00N 27°30' W 115°48'5213.1 260 / 101014.1 5.4 1.017.115.419.2
2015-Mar-01 06:00N 28°18' W 116°12'12515.7 320 / 41013.010.8 16.012.418.0
2015-Feb-28 22:00N 30°18' W 116°54'11815.4 270 / 41014.0 5.4 17.013.518.0
2015-Feb-28 14:20N 32°09' W 117°40'1214.9
2015-Feb-28 13:33N 32°20' W 117°44'1515.1
2015-Feb-28 12:34N 32°35' W 117°50'1515.1
2015-Feb-28 11:34N 32°49' W 117°55'1515.0
2015-Feb-28 10:33N 33°04' W 118°00'1414.3
2015-Feb-28 09:33N 33°17' W 118°05'29 9.3
2015-Feb-28 06:28N 33°44' W 118°17'2 1.6
2015-Feb-28 05:28N 33°46' W 118°17'0 0.0
2015-Feb-28 04:22N 33°46' W 118°17'0 0.0
2015-Feb-28 03:28N 33°46' W 118°17'0 0.0
2015-Feb-28 02:28N 33°46' W 118°17'0 0.0
2015-Feb-28 01:28N 33°46' W 118°17'0 0.0
2015-Feb-28 00:25N 33°46' W 118°17'0 0.0
2015-Feb-27 23:31N 33°46' W 118°17'0 0.0
2015-Feb-27 22:31N 33°46' W 118°17'0 0.0
2015-Feb-27 21:28N 33°46' W 118°17'0 0.0
2015-Feb-27 20:31N 33°46' W 118°17'0 0.0
2015-Feb-27 19:28N 33°46' W 118°17'0 0.0
2015-Feb-27 18:22N 33°46' W 118°17'0 0.0
2015-Feb-27 17:28N 33°46' W 118°17'0 0.0
2015-Feb-27 16:28N 33°46' W 118°17'0 0.0
2015-Feb-27 15:28N 33°46' W 118°17'0 0.0
2015-Feb-27 14:28N 33°46' W 118°17'0 0.0
2015-Feb-27 13:31N 33°46' W 118°17'0 0.0
2015-Feb-27 12:28N 33°46' W 118°17'0 0.0
2015-Feb-27 11:28N 33°46' W 118°17'0 0.0
2015-Feb-27 10:28N 33°46' W 118°17'0 0.0
2015-Feb-27 09:28N 33°46' W 118°17'0 0.0
2015-Feb-27 08:28N 33°46' W 118°17'0 0.0
2015-Feb-27 07:31N 33°46' W 118°17'0 0.0
2015-Feb-27 06:28N 33°46' W 118°17'0 0.0
2015-Feb-27 05:28N 33°46' W 118°17'0 0.0
2015-Feb-27 04:31N 33°46' W 118°17'0 0.0
2015-Feb-27 03:31N 33°46' W 118°17'0 0.0
2015-Feb-27 02:31N 33°46' W 118°17'0 0.0
2015-Feb-27 01:31N 33°46' W 118°17'0 0.0
2015-Feb-27 00:31N 33°46' W 118°17'0 0.0
2015-Feb-26 23:28N 33°46' W 118°17'0 0.0
2015-Feb-26 22:31N 33°46' W 118°17'0 0.0
2015-Feb-26 21:31N 33°46' W 118°17'0 0.0
2015-Feb-26 20:31N 33°46' W 118°17'610.6
2015-Feb-26 20:00N 33°42' W 118°12'611.5 140 / 31014.0 5.4 19.015.617.0
2015-Feb-26 19:31N 33°46' W 118°17'0 0.0
2015-Feb-26 18:31N 33°46' W 118°17'0 0.0
2015-Feb-26 17:28N 33°46' W 118°17'0 0.0
2015-Feb-26 16:31N 33°46' W 118°17'0 0.0
2015-Feb-26 15:28N 33°46' W 118°17'0 0.0
2015-Feb-26 14:28N 33°46' W 118°17'0 0.0
2015-Feb-26 13:31N 33°46' W 118°17'0 0.0
2015-Feb-26 12:31N 33°46' W 118°17'0 0.0
2015-Feb-26 11:31N 33°46' W 118°17'0 0.0
2015-Feb-26 10:31N 33°46' W 118°17'0 0.0
2015-Feb-26 09:31N 33°46' W 118°17'0 0.0
2015-Feb-26 08:31N 33°46' W 118°17'0 0.0
2015-Feb-26 07:28N 33°46' W 118°17'0 0.0
2015-Feb-26 06:31N 33°46' W 118°17'610.6
2015-Feb-26 06:00N 33°42' W 118°12'611.5 100 / 31017.010.8 14.010.217.0
2015-Feb-26 05:31N 33°46' W 118°17'0 0.0
2015-Feb-26 04:31N 33°46' W 118°17'0 0.0
2015-Feb-26 03:31N 33°46' W 118°17'0 0.0
2015-Feb-26 02:31N 33°46' W 118°17'0 0.0
2015-Feb-26 01:31N 33°46' W 118°17'0 0.0
2015-Feb-26 00:31N 33°46' W 118°17'0 0.0
2015-Feb-25 23:28N 33°46' W 118°17'0 0.0
2015-Feb-25 22:31N 33°46' W 118°17'0 0.0
2015-Feb-25 21:31N 33°46' W 118°17'0 0.0
2015-Feb-25 20:31N 33°46' W 118°17'610.6
2015-Feb-25 20:00N 33°42' W 118°12'611.5 150 / 61020.0 5.4 19.013.817.0
2015-Feb-25 19:31N 33°46' W 118°17'0 0.0
2015-Feb-25 18:31N 33°46' W 118°17'0 0.0
2015-Feb-25 17:31N 33°46' W 118°17'0 0.0
2015-Feb-25 16:31N 33°46' W 118°17'2 2.4
2015-Feb-25 15:33N 33°44' W 118°16'6 6.4
2015-Feb-25 14:33N 33°37' W 118°15'5 4.9
2015-Feb-25 13:33N 33°36' W 118°20'10 9.4
2015-Feb-25 12:33N 33°41' W 118°30'11 9.9
2015-Feb-25 11:28N 33°46' W 118°42'30 9.8
2015-Feb-25 08:21N 34°01' W 119°13'7 9.4
2015-Feb-25 07:33N 34°04' W 119°22'10 9.9
2015-Feb-25 06:31N 34°07' W 119°34'713.1
2015-Feb-25 06:00N 34°06' W 119°42'38 9.9 310 / 131023.0 5.4 16.012.416.0
2015-Feb-25 02:08N 34°18' W 120°26'610.1
2015-Feb-25 01:33N 34°20' W 120°32'1210.1
2015-Feb-25 00:21N 34°23' W 120°47'6 7.9
2015-Feb-24 23:33N 34°24' W 120°54'1610.2
2015-Feb-24 22:00N 34°18' W 121°12'817.0 360 / 41025.0 5.4 21.014.215.0
2015-Feb-24 21:33N 34°17' W 121°21'1111.6
2015-Feb-24 20:33N 34°14' W 121°35'1411.3
2015-Feb-24 19:21N 34°09' W 121°50'1012.6
2015-Feb-24 18:33N 34°05' W 122°01'711.9
2015-Feb-24 18:00N 34°00' W 122°06'817.4 280 / 131026.0 5.4 1.016.010.315.0
2015-Feb-24 17:33N 34°01' W 122°15'1212.3
2015-Feb-24 16:33N 33°56' W 122°29'12411.8
2015-Feb-24 06:00N 33°12' W 124°48'8412.0 280 / 181020.0 5.4 1.517.013.516.0
2015-Feb-23 23:00N 32°48' W 126°24'6112.1 020 / 41021.5 19.013.817.0
2015-Feb-23 18:00N 32°24' W 127°30'8512.1 020 / 131019.0 5.4 1.017.013.517.0
2015-Feb-23 11:00N 32°00' W 129°06'38 9.4 030 / 181019.1 5.4 1.515.111.418.1
2015-Feb-23 07:00N 31°48' W 129°48'14217.7 020 / 131017.0 5.4 17.015.319.0
2015-Feb-22 23:00N 31°00' W 132°24'5513.6 040 / 141018.1 5.4 1.018.114.718.2
2015-Feb-22 19:00N 30°42' W 133°24'11917.1 020 / 61014.010.8 18.014.620.0
2015-Feb-22 12:00N 30°06' W 135°36'18013.9 150 / 151018.1 5.4 1.518.214.820.1
2015-Feb-21 23:00N 29°12' W 138°54'4110.2 130 / 51015.0 19.017.320.0
2015-Feb-21 19:00N 28°54' W 139°36'23512.4 180 / 131016.0 2.2 20.018.420.0
2015-Feb-21 00:00N 27°54' W 143°54'   170 / 171017.1 5.4 1.522.018.921.1
Track history (hours):
 
Tides and Currents Weather Stations Pressure Air Temp Water Temp Dewpoint Dewpoint Depression Visibility Wind Speed Wind Dir Waves Ship Positions

Rickmers Dalian

Last reported at 2015-Mar-01 10:00 UTC. Time now 2015-Mar-01 11:01 UTC.
Position N 27°30' W 115°48'.

Length 193 m; beam 27.8 m; draft 11.2 m.

Type: Ship. MMSI: 538090156.

Wind from 260 at 10 knots

Waves 1.0 meters (3 feet), 8 second period

Barometer 1014.1 mb
Air temperature 17.1 ° C
Visibility: greater than 5.4 NM
Dewpoint 15.4 ° C
Water temperature 19.2 ° C

Date/timePositionNaut miles runAvg speedWind from/ knotsBaromVisibWave heightAir tempDewpointWater temp
2015-Mar-01 10:00N 27°30' W 115°48'5213.1 260 / 101014.1 5.4 1.017.115.419.2
2015-Mar-01 06:00N 28°18' W 116°12'12515.7 320 / 41013.010.8 16.012.418.0
2015-Feb-28 22:00N 30°18' W 116°54'11815.4 270 / 41014.0 5.4 17.013.518.0
2015-Feb-28 14:20N 32°09' W 117°40'1214.9
2015-Feb-28 13:33N 32°20' W 117°44'1515.1
2015-Feb-28 12:34N 32°35' W 117°50'1515.1
2015-Feb-28 11:34N 32°49' W 117°55'1515.0
2015-Feb-28 10:33N 33°04' W 118°00'1414.3
2015-Feb-28 09:33N 33°17' W 118°05'29 9.3
2015-Feb-28 06:28N 33°44' W 118°17'2 1.6
2015-Feb-28 05:28N 33°46' W 118°17'0 0.0
2015-Feb-28 04:22N 33°46' W 118°17'0 0.0
2015-Feb-28 03:28N 33°46' W 118°17'0 0.0
2015-Feb-28 02:28N 33°46' W 118°17'0 0.0
2015-Feb-28 01:28N 33°46' W 118°17'0 0.0
2015-Feb-28 00:25N 33°46' W 118°17'0 0.0
2015-Feb-27 23:31N 33°46' W 118°17'0 0.0
2015-Feb-27 22:31N 33°46' W 118°17'0 0.0
2015-Feb-27 21:28N 33°46' W 118°17'0 0.0
2015-Feb-27 20:31N 33°46' W 118°17'0 0.0
2015-Feb-27 19:28N 33°46' W 118°17'0 0.0
2015-Feb-27 18:22N 33°46' W 118°17'0 0.0
2015-Feb-27 17:28N 33°46' W 118°17'0 0.0
2015-Feb-27 16:28N 33°46' W 118°17'0 0.0
2015-Feb-27 15:28N 33°46' W 118°17'0 0.0
2015-Feb-27 14:28N 33°46' W 118°17'0 0.0
2015-Feb-27 13:31N 33°46' W 118°17'0 0.0
2015-Feb-27 12:28N 33°46' W 118°17'0 0.0
2015-Feb-27 11:28N 33°46' W 118°17'0 0.0
2015-Feb-27 10:28N 33°46' W 118°17'0 0.0
2015-Feb-27 09:28N 33°46' W 118°17'0 0.0
2015-Feb-27 08:28N 33°46' W 118°17'0 0.0
2015-Feb-27 07:31N 33°46' W 118°17'0 0.0
2015-Feb-27 06:28N 33°46' W 118°17'0 0.0
2015-Feb-27 05:28N 33°46' W 118°17'0 0.0
2015-Feb-27 04:31N 33°46' W 118°17'0 0.0
2015-Feb-27 03:31N 33°46' W 118°17'0 0.0
2015-Feb-27 02:31N 33°46' W 118°17'0 0.0
2015-Feb-27 01:31N 33°46' W 118°17'0 0.0
2015-Feb-27 00:31N 33°46' W 118°17'0 0.0
2015-Feb-26 23:28N 33°46' W 118°17'0 0.0
2015-Feb-26 22:31N 33°46' W 118°17'0 0.0
2015-Feb-26 21:31N 33°46' W 118°17'0 0.0
2015-Feb-26 20:31N 33°46' W 118°17'610.6
2015-Feb-26 20:00N 33°42' W 118°12'611.5 140 / 31014.0 5.4 19.015.617.0
2015-Feb-26 19:31N 33°46' W 118°17'0 0.0
2015-Feb-26 18:31N 33°46' W 118°17'0 0.0
2015-Feb-26 17:28N 33°46' W 118°17'0 0.0
2015-Feb-26 16:31N 33°46' W 118°17'0 0.0
2015-Feb-26 15:28N 33°46' W 118°17'0 0.0
2015-Feb-26 14:28N 33°46' W 118°17'0 0.0
2015-Feb-26 13:31N 33°46' W 118°17'0 0.0
2015-Feb-26 12:31N 33°46' W 118°17'0 0.0
2015-Feb-26 11:31N 33°46' W 118°17'0 0.0
2015-Feb-26 10:31N 33°46' W 118°17'0 0.0
2015-Feb-26 09:31N 33°46' W 118°17'0 0.0
2015-Feb-26 08:31N 33°46' W 118°17'0 0.0
2015-Feb-26 07:28N 33°46' W 118°17'0 0.0
2015-Feb-26 06:31N 33°46' W 118°17'610.6
2015-Feb-26 06:00N 33°42' W 118°12'611.5 100 / 31017.010.8 14.010.217.0
2015-Feb-26 05:31N 33°46' W 118°17'0 0.0
2015-Feb-26 04:31N 33°46' W 118°17'0 0.0
2015-Feb-26 03:31N 33°46' W 118°17'0 0.0
2015-Feb-26 02:31N 33°46' W 118°17'0 0.0
2015-Feb-26 01:31N 33°46' W 118°17'0 0.0
2015-Feb-26 00:31N 33°46' W 118°17'0 0.0
2015-Feb-25 23:28N 33°46' W 118°17'0 0.0
2015-Feb-25 22:31N 33°46' W 118°17'0 0.0
2015-Feb-25 21:31N 33°46' W 118°17'0 0.0
2015-Feb-25 20:31N 33°46' W 118°17'610.6
2015-Feb-25 20:00N 33°42' W 118°12'611.5 150 / 61020.0 5.4 19.013.817.0
2015-Feb-25 19:31N 33°46' W 118°17'0 0.0
2015-Feb-25 18:31N 33°46' W 118°17'0 0.0
2015-Feb-25 17:31N 33°46' W 118°17'0 0.0
2015-Feb-25 16:31N 33°46' W 118°17'2 2.4
2015-Feb-25 15:33N 33°44' W 118°16'6 6.4
2015-Feb-25 14:33N 33°37' W 118°15'5 4.9
2015-Feb-25 13:33N 33°36' W 118°20'10 9.4
2015-Feb-25 12:33N 33°41' W 118°30'11 9.9
2015-Feb-25 11:28N 33°46' W 118°42'30 9.8
2015-Feb-25 08:21N 34°01' W 119°13'7 9.4
2015-Feb-25 07:33N 34°04' W 119°22'10 9.9
2015-Feb-25 06:31N 34°07' W 119°34'713.1
2015-Feb-25 06:00N 34°06' W 119°42'38 9.9 310 / 131023.0 5.4 16.012.416.0
2015-Feb-25 02:08N 34°18' W 120°26'610.1
2015-Feb-25 01:33N 34°20' W 120°32'1210.1
2015-Feb-25 00:21N 34°23' W 120°47'6 7.9
2015-Feb-24 23:33N 34°24' W 120°54'1610.2
2015-Feb-24 22:00N 34°18' W 121°12'817.0 360 / 41025.0 5.4 21.014.215.0
2015-Feb-24 21:33N 34°17' W 121°21'1111.6
2015-Feb-24 20:33N 34°14' W 121°35'1411.3
2015-Feb-24 19:21N 34°09' W 121°50'1012.6
2015-Feb-24 18:33N 34°05' W 122°01'711.9
2015-Feb-24 18:00N 34°00' W 122°06'817.4 280 / 131026.0 5.4 1.016.010.315.0
2015-Feb-24 17:33N 34°01' W 122°15'1212.3
2015-Feb-24 16:33N 33°56' W 122°29'12411.8
2015-Feb-24 06:00N 33°12' W 124°48'8412.0 280 / 181020.0 5.4 1.517.013.516.0
2015-Feb-23 23:00N 32°48' W 126°24'6112.1 020 / 41021.5 19.013.817.0
2015-Feb-23 18:00N 32°24' W 127°30'8512.1 020 / 131019.0 5.4 1.017.013.517.0
2015-Feb-23 11:00N 32°00' W 129°06'38 9.4 030 / 181019.1 5.4 1.515.111.418.1
2015-Feb-23 07:00N 31°48' W 129°48'14217.7 020 / 131017.0 5.4 17.015.319.0
2015-Feb-22 23:00N 31°00' W 132°24'5513.6 040 / 141018.1 5.4 1.018.114.718.2
2015-Feb-22 19:00N 30°42' W 133°24'11917.1 020 / 61014.010.8 18.014.620.0
2015-Feb-22 12:00N 30°06' W 135°36'18013.9 150 / 151018.1 5.4 1.518.214.820.1
2015-Feb-21 23:00N 29°12' W 138°54'4110.2 130 / 51015.0 19.017.320.0
2015-Feb-21 19:00N 28°54' W 139°36'23512.4 180 / 131016.0 2.2 20.018.420.0
2015-Feb-21 00:00N 27°54' W 143°54'   170 / 171017.1 5.4 1.522.018.921.1

Dump ship's entire track history